createdAt,value
2022-10-21T00:01:50.877Z,70.97
2022-10-21T00:04:17.582Z,71.12
2022-10-21T00:06:44.317Z,71.34
2022-10-21T00:09:11.128Z,71.27
2022-10-21T00:11:38.363Z,71.67
2022-10-21T00:14:05.124Z,71.45
2022-10-21T00:16:31.825Z,71.60
2022-10-21T00:18:58.592Z,71.42
2022-10-21T00:21:25.352Z,71.41
2022-10-21T00:23:52.105Z,71.60
2022-10-21T00:26:18.901Z,71.55
2022-10-21T00:28:45.710Z,71.60
2022-10-21T00:31:13.933Z,71.48
2022-10-21T00:33:41.123Z,71.54
2022-10-21T00:36:08.794Z,71.54
2022-10-21T00:38:35.803Z,71.54
2022-10-21T00:41:02.533Z,71.48
2022-10-21T00:43:29.274Z,71.61
2022-10-21T00:45:59.806Z,71.45
2022-10-21T00:48:36.027Z,71.54
2022-10-21T00:51:06.965Z,71.90
2022-10-21T00:53:35.525Z,71.65
2022-10-21T00:56:14.015Z,71.70
2022-10-21T00:58:44.014Z,71.65
2022-10-21T01:01:10.838Z,71.71
2022-10-21T01:03:37.566Z,71.76
2022-10-21T01:06:07.979Z,71.77
2022-10-21T01:08:35.337Z,71.71
2022-10-21T01:11:02.122Z,71.75
2022-10-21T01:13:57.428Z,71.78
2022-10-21T01:16:55.063Z,71.82
2022-10-21T01:19:52.472Z,71.69
2022-10-21T01:22:36.115Z,71.71
2022-10-21T01:25:11.737Z,72.05
2022-10-21T01:28:03.231Z,72.07
2022-10-21T01:31:14.948Z,72.09
2022-10-21T01:33:50.708Z,72.05
2022-10-21T01:36:24.326Z,72.20
2022-10-21T01:39:19.090Z,72.08
2022-10-21T01:41:56.454Z,72.11
2022-10-21T01:44:30.888Z,72.14
2022-10-21T01:46:58.241Z,72.26
2022-10-21T01:49:53.656Z,72.30
2022-10-21T01:52:20.848Z,72.32
2022-10-21T01:54:55.292Z,72.03
2022-10-21T01:57:24.678Z,72.18
2022-10-21T01:59:51.915Z,72.38
2022-10-21T02:02:19.978Z,72.32
2022-10-21T02:04:47.364Z,72.40
2022-10-21T02:07:14.045Z,72.34
2022-10-21T02:09:40.753Z,72.24
2022-10-21T02:12:07.693Z,72.25
2022-10-21T02:14:37.645Z,72.63
2022-10-21T02:17:05.132Z,72.21
2022-10-21T02:22:04.498Z,72.55
2022-10-21T02:24:31.069Z,72.37
2022-10-21T02:26:57.781Z,72.41
2022-10-21T02:29:28.723Z,72.35
2022-10-21T02:31:55.351Z,72.50
2022-10-21T02:34:43.287Z,72.59
2022-10-21T02:37:31.485Z,72.63
2022-10-21T02:40:23.783Z,72.52
2022-10-21T02:42:54.338Z,72.65
2022-10-21T02:45:21.480Z,72.48
2022-10-21T02:47:49.345Z,72.57
2022-10-21T02:50:16.605Z,72.50
2022-10-21T02:52:43.313Z,72.47
2022-10-21T02:55:10.058Z,72.61
2022-10-21T02:57:37.000Z,72.57
2022-10-21T03:00:06.390Z,72.70
2022-10-21T03:02:33.096Z,72.54
2022-10-21T03:04:59.829Z,72.85
2022-10-21T03:07:26.513Z,72.66
2022-10-21T03:09:53.266Z,72.58
2022-10-21T03:12:19.945Z,72.49
2022-10-21T03:14:46.621Z,72.64
2022-10-21T03:17:13.350Z,72.58
2022-10-21T03:19:40.023Z,72.65
2022-10-21T03:22:06.745Z,72.67
2022-10-21T03:24:33.445Z,72.77
2022-10-21T03:27:00.132Z,72.59
2022-10-21T03:29:26.812Z,72.60
2022-10-21T03:31:53.529Z,72.63
2022-10-21T03:34:20.266Z,72.64
2022-10-21T03:36:46.955Z,72.79
2022-10-21T03:39:13.664Z,72.81
2022-10-21T03:41:40.495Z,72.83
2022-10-21T03:44:07.201Z,72.83
2022-10-21T03:46:33.952Z,72.96
2022-10-21T03:49:04.172Z,72.88
2022-10-21T03:51:33.479Z,72.76
2022-10-21T03:54:00.172Z,72.82
2022-10-21T03:56:27.053Z,72.83
2022-10-21T03:58:58.414Z,72.81
2022-10-21T04:01:26.079Z,72.99
2022-10-21T04:03:52.940Z,72.74
2022-10-21T04:06:19.625Z,72.76
2022-10-21T04:08:46.374Z,72.51
2022-10-21T04:11:13.113Z,72.73
2022-10-21T04:13:39.858Z,72.65
2022-10-21T04:16:08.485Z,72.78
2022-10-21T04:18:35.174Z,72.61
2022-10-21T04:21:01.875Z,72.75
2022-10-21T04:23:28.579Z,72.75
2022-10-21T04:25:55.265Z,73.02
2022-10-21T04:28:21.945Z,72.49
2022-10-21T04:30:49.980Z,72.50
2022-10-21T04:33:16.666Z,72.70
2022-10-21T04:35:43.364Z,72.69
2022-10-21T04:38:10.193Z,72.54
2022-10-21T04:40:36.888Z,72.52
2022-10-21T04:43:03.584Z,72.79
2022-10-21T04:45:30.278Z,72.84
2022-10-21T04:47:56.960Z,72.86
2022-10-21T04:50:23.667Z,72.69
2022-10-21T04:52:50.348Z,72.58
2022-10-21T04:55:17.037Z,72.64
2022-10-21T04:57:43.758Z,72.48
2022-10-21T05:00:11.235Z,72.79
2022-10-21T05:02:38.168Z,72.73
2022-10-21T05:05:05.386Z,72.52
2022-10-21T05:07:32.073Z,72.54
2022-10-21T05:09:58.745Z,72.41
2022-10-21T05:12:25.549Z,72.39
2022-10-21T05:14:52.256Z,72.61
2022-10-21T05:17:18.943Z,72.63
2022-10-21T05:19:45.669Z,72.78
2022-10-21T05:22:12.439Z,72.73
2022-10-21T05:24:39.142Z,72.51
2022-10-21T05:27:05.822Z,72.34
2022-10-21T05:29:32.525Z,72.69
2022-10-21T05:31:59.202Z,72.70
2022-10-21T05:34:25.919Z,72.78
2022-10-21T05:36:52.597Z,73.13
2022-10-21T05:39:19.311Z,73.09
2022-10-21T05:41:48.006Z,73.02
2022-10-21T05:44:15.078Z,72.96
2022-10-21T05:46:41.904Z,73.00
2022-10-21T05:49:08.849Z,73.13
2022-10-21T05:51:35.528Z,73.03
2022-10-21T05:54:03.869Z,73.14
2022-10-21T05:56:30.585Z,73.08
2022-10-21T05:58:57.375Z,73.11
2022-10-21T06:01:24.158Z,73.23
2022-10-21T06:03:50.916Z,73.20
2022-10-21T06:06:17.597Z,73.21
2022-10-21T06:08:44.778Z,73.35
2022-10-21T06:11:14.388Z,73.29
2022-10-21T06:13:41.415Z,73.34
2022-10-21T06:16:09.019Z,73.49
2022-10-21T06:18:36.099Z,73.16
2022-10-21T06:21:03.353Z,73.52
2022-10-21T06:23:30.069Z,73.55
2022-10-21T06:26:17.050Z,73.62
2022-10-21T06:28:44.381Z,73.59
2022-10-21T06:31:14.512Z,73.72
2022-10-21T06:33:41.390Z,73.85
2022-10-21T06:36:08.161Z,73.88
2022-10-21T06:38:36.860Z,74.04
2022-10-21T06:41:12.292Z,74.24
2022-10-21T06:43:40.572Z,74.25
2022-10-21T06:46:11.573Z,74.36
2022-10-21T06:48:38.305Z,74.27
2022-10-21T06:51:10.406Z,74.53
2022-10-21T06:53:39.216Z,74.43
2022-10-21T06:56:08.368Z,74.52
2022-10-21T06:58:36.136Z,74.65
2022-10-21T07:01:21.376Z,74.39
2022-10-21T07:03:57.563Z,74.71
2022-10-21T07:06:24.359Z,74.32
2022-10-21T07:08:58.028Z,74.70
2022-10-21T07:11:25.806Z,74.74
2022-10-21T07:13:52.481Z,74.60
2022-10-21T07:16:27.431Z,74.50
2022-10-21T07:18:55.139Z,74.40
2022-10-21T07:21:23.643Z,74.57
2022-10-21T07:23:51.520Z,74.49
2022-10-21T07:26:19.958Z,74.55
2022-10-21T07:28:47.768Z,74.80
2022-10-21T07:31:18.722Z,74.40
2022-10-21T07:33:45.849Z,74.49
2022-10-21T07:36:23.177Z,74.46
2022-10-21T07:38:51.068Z,74.58
2022-10-21T07:41:24.481Z,74.51
2022-10-21T07:43:51.661Z,74.46
2022-10-21T07:46:19.014Z,74.55
2022-10-21T07:48:45.756Z,74.65
2022-10-21T07:51:16.448Z,74.42
2022-10-21T07:53:43.129Z,74.52
2022-10-21T07:56:16.851Z,74.49
2022-10-21T07:58:44.318Z,74.60
2022-10-21T08:01:11.486Z,74.58
2022-10-21T08:03:38.989Z,74.73
2022-10-21T08:06:07.007Z,74.62
2022-10-21T08:08:34.286Z,74.55
2022-10-21T08:11:01.781Z,74.58
2022-10-21T08:13:29.442Z,74.56
2022-10-21T08:15:56.873Z,74.73
2022-10-21T08:18:24.599Z,74.50
2022-10-21T08:20:51.481Z,74.68
2022-10-21T08:23:20.306Z,74.65
2022-10-21T08:25:48.874Z,74.70
2022-10-21T08:28:15.692Z,74.62
2022-10-21T08:30:43.280Z,74.42
2022-10-21T08:33:10.167Z,74.36
2022-10-21T08:35:36.868Z,74.41
2022-10-21T08:38:04.243Z,74.43
2022-10-21T08:40:37.137Z,74.14
2022-10-21T08:43:17.663Z,74.44
2022-10-21T08:45:49.255Z,74.42
2022-10-21T08:48:20.527Z,74.33
2022-10-21T08:50:49.276Z,74.21
2022-10-21T08:53:23.432Z,74.17
2022-10-21T08:55:52.017Z,74.29
2022-10-21T08:58:23.253Z,74.34
2022-10-21T09:01:19.149Z,74.32
2022-10-21T09:03:48.347Z,74.20
2022-10-21T09:06:23.417Z,74.37
2022-10-21T09:08:57.501Z,74.29
2022-10-21T09:11:58.585Z,74.27
2022-10-21T09:14:44.089Z,74.22
2022-10-21T09:17:25.733Z,74.46
2022-10-21T09:20:06.994Z,74.09
2022-10-21T09:22:49.416Z,74.08
2022-10-21T09:25:16.011Z,73.87
2022-10-21T09:27:56.781Z,73.92
2022-10-21T09:30:24.694Z,73.77
2022-10-21T09:32:56.319Z,73.83
2022-10-21T09:35:42.603Z,73.60
2022-10-21T09:38:16.962Z,73.48
2022-10-21T09:40:44.426Z,73.46
2022-10-21T09:43:20.742Z,73.30
2022-10-21T09:45:47.673Z,73.13
2022-10-21T09:48:17.490Z,73.01
2022-10-21T09:50:45.696Z,73.13
2022-10-21T09:53:15.485Z,73.11
2022-10-21T09:55:44.480Z,72.87
2022-10-21T09:58:27.222Z,72.98
2022-10-21T10:00:54.177Z,72.96
2022-10-21T10:03:35.780Z,72.76
2022-10-21T10:06:04.439Z,72.87
2022-10-21T10:08:33.023Z,72.96
2022-10-21T10:11:09.490Z,72.62
2022-10-21T10:13:37.608Z,72.71
2022-10-21T10:16:27.178Z,72.61
2022-10-21T10:19:15.984Z,72.65
2022-10-21T10:21:43.350Z,72.62
2022-10-21T10:24:18.706Z,72.67
2022-10-21T10:26:46.056Z,72.38
2022-10-21T10:29:15.789Z,72.37
2022-10-21T10:31:49.564Z,72.55
2022-10-21T10:34:36.473Z,72.59
2022-10-21T10:37:07.117Z,72.45
2022-10-21T10:39:36.462Z,72.42
2022-10-21T10:42:03.417Z,72.61
2022-10-21T10:44:41.223Z,72.46
2022-10-21T10:47:16.215Z,72.40
2022-10-21T10:49:43.847Z,72.48
2022-10-21T10:52:10.443Z,72.72
2022-10-21T10:54:38.569Z,72.73
2022-10-21T10:57:13.585Z,72.45
2022-10-21T10:59:51.423Z,72.57
2022-10-21T11:02:51.717Z,72.79
2022-10-21T11:05:25.600Z,72.77
2022-10-21T11:07:54.323Z,72.87
2022-10-21T11:10:32.520Z,72.80
2022-10-21T11:13:00.944Z,72.72
2022-10-21T11:15:37.182Z,72.83
2022-10-21T11:18:35.125Z,72.57
2022-10-21T11:21:35.914Z,72.84
2022-10-21T11:24:20.807Z,72.95
2022-10-21T11:27:09.847Z,72.68
2022-10-21T11:29:45.170Z,73.03
2022-10-21T11:32:27.377Z,72.81
2022-10-21T11:35:00.164Z,72.69
2022-10-21T11:37:37.610Z,73.06
2022-10-21T11:40:25.197Z,72.97
2022-10-21T11:42:52.448Z,73.11
2022-10-21T11:45:42.845Z,73.04
2022-10-21T11:48:25.527Z,72.94
2022-10-21T11:51:03.831Z,73.27
2022-10-21T11:53:52.815Z,73.07
2022-10-21T11:56:39.729Z,73.27
2022-10-21T11:59:34.478Z,73.07
2022-10-21T12:02:31.272Z,73.30
2022-10-21T12:05:25.456Z,73.12
2022-10-21T12:07:55.202Z,73.17
2022-10-21T12:10:32.856Z,73.34
2022-10-21T12:13:05.421Z,73.35
2022-10-21T12:15:38.750Z,73.31
2022-10-21T12:18:05.890Z,73.02
2022-10-21T12:20:33.491Z,72.82
2022-10-21T12:23:05.383Z,73.04
2022-10-21T12:25:58.937Z,73.01
2022-10-21T12:28:40.362Z,73.15
2022-10-21T12:31:25.219Z,72.99
2022-10-21T12:33:52.546Z,73.26
2022-10-21T12:36:39.697Z,73.36
2022-10-21T12:39:12.719Z,73.31
2022-10-21T12:41:40.537Z,73.19
2022-10-21T12:44:17.661Z,73.18
2022-10-21T12:46:46.464Z,73.21
2022-10-21T12:49:21.461Z,73.27
2022-10-21T12:52:03.568Z,73.23
2022-10-21T12:54:51.237Z,73.46
2022-10-21T12:57:26.254Z,73.34
2022-10-21T13:00:14.475Z,73.35
2022-10-21T13:02:59.319Z,73.14
2022-10-21T13:05:38.219Z,73.42
2022-10-21T13:08:20.203Z,73.42
2022-10-21T13:11:08.288Z,73.82
2022-10-21T13:13:35.535Z,73.53
2022-10-21T13:16:22.138Z,73.72
2022-10-21T13:19:00.374Z,73.76
2022-10-21T13:21:29.955Z,73.71
2022-10-21T13:24:06.911Z,73.60
2022-10-21T13:26:33.680Z,73.63
2022-10-21T13:29:34.223Z,73.58
2022-10-21T13:32:19.329Z,73.78
2022-10-21T13:34:59.185Z,73.85
2022-10-21T13:37:30.021Z,73.98
2022-10-21T13:40:00.388Z,73.86
2022-10-21T13:42:33.405Z,74.04
2022-10-21T13:45:05.485Z,74.03
2022-10-21T13:47:34.344Z,74.11
2022-10-21T13:50:09.820Z,74.17
2022-10-21T13:52:36.580Z,73.90
2022-10-21T13:55:04.885Z,73.93
2022-10-21T13:57:32.784Z,74.18
2022-10-21T14:00:01.398Z,74.15
2022-10-21T14:02:28.259Z,73.96
2022-10-21T14:04:55.032Z,74.05
2022-10-21T14:07:21.874Z,74.08
2022-10-21T14:09:51.866Z,74.01
2022-10-21T14:12:28.596Z,74.07
2022-10-21T14:14:57.513Z,74.03
2022-10-21T14:17:25.961Z,74.07
2022-10-21T14:19:55.219Z,73.99
2022-10-21T14:22:26.213Z,74.15
2022-10-21T14:24:56.668Z,74.20
2022-10-21T14:27:29.045Z,74.25
2022-10-21T14:29:56.963Z,74.22
2022-10-21T14:32:25.677Z,74.28
2022-10-21T14:35:10.565Z,74.43
2022-10-21T14:37:40.202Z,74.39
2022-10-21T14:40:31.851Z,74.36
2022-10-21T14:43:04.761Z,74.32
2022-10-21T14:45:36.499Z,74.27
2022-10-21T14:48:09.593Z,74.39
2022-10-21T14:50:38.396Z,74.49
2022-10-21T14:53:14.609Z,74.29
2022-10-21T14:55:42.466Z,74.41
2022-10-21T14:58:11.121Z,74.42
2022-10-21T15:00:41.457Z,74.12
2022-10-21T15:03:12.277Z,74.56
2022-10-21T15:05:45.223Z,74.50
2022-10-21T15:08:22.527Z,74.54
2022-10-21T15:11:00.180Z,74.41
2022-10-21T15:13:27.020Z,74.36
2022-10-21T15:15:58.709Z,74.45
2022-10-21T15:18:42.926Z,74.58
2022-10-21T15:21:15.407Z,74.61
2022-10-21T15:23:48.941Z,74.68
2022-10-21T15:26:20.069Z,74.60
2022-10-21T15:28:46.952Z,74.83
2022-10-21T15:31:26.676Z,74.52
2022-10-21T15:33:54.873Z,74.80
2022-10-21T15:36:21.768Z,74.89
2022-10-21T15:38:48.687Z,74.64
2022-10-21T15:41:21.220Z,74.79
2022-10-21T15:44:19.987Z,74.69
2022-10-21T15:46:46.903Z,74.69
2022-10-21T15:49:22.383Z,75.12
2022-10-21T15:51:49.801Z,74.74
2022-10-21T15:54:18.183Z,74.75
2022-10-21T15:56:46.785Z,74.76
2022-10-21T15:59:19.768Z,74.63
2022-10-21T16:01:46.965Z,74.69
2022-10-21T16:04:13.660Z,74.57
2022-10-21T16:06:45.617Z,74.62
2022-10-21T16:09:18.157Z,74.58
2022-10-21T16:11:58.859Z,74.53
2022-10-21T16:14:29.552Z,74.66
2022-10-21T16:16:58.220Z,74.45
2022-10-21T16:19:24.934Z,74.52
2022-10-21T16:21:51.668Z,74.51
2022-10-21T16:24:18.556Z,74.49
2022-10-21T16:26:47.240Z,74.12
2022-10-21T16:29:19.565Z,74.47
2022-10-21T16:31:46.472Z,74.68
2022-10-21T16:34:13.670Z,74.74
2022-10-21T16:36:40.625Z,74.76
2022-10-21T16:39:14.446Z,74.73
2022-10-21T16:41:41.152Z,74.66
2022-10-21T16:44:07.856Z,74.73
2022-10-21T16:46:40.302Z,74.95
2022-10-21T16:49:13.150Z,74.78
2022-10-21T16:51:41.135Z,74.92
2022-10-21T16:54:07.896Z,74.73
2022-10-21T16:56:34.603Z,74.93
2022-10-21T16:59:01.339Z,74.74
2022-10-21T17:01:28.110Z,74.88
2022-10-21T17:03:54.810Z,74.74
2022-10-21T17:06:23.696Z,74.79
2022-10-21T17:08:51.618Z,74.74
2022-10-21T17:11:36.976Z,74.75
2022-10-21T17:14:05.633Z,74.82
2022-10-21T17:16:32.495Z,74.73
2022-10-21T17:18:59.196Z,74.64
2022-10-21T17:21:28.046Z,74.81
2022-10-21T17:23:56.131Z,74.65
2022-10-21T17:26:22.913Z,74.56
2022-10-21T17:28:50.396Z,74.84
2022-10-21T17:31:19.325Z,74.75
2022-10-21T17:33:47.148Z,74.67
2022-10-21T17:36:14.726Z,74.75
2022-10-21T17:38:41.910Z,74.53
2022-10-21T17:41:09.857Z,74.72
2022-10-21T17:43:36.757Z,74.39
2022-10-21T17:46:03.716Z,74.74
2022-10-21T17:48:30.400Z,74.57
2022-10-21T17:50:59.628Z,74.58
2022-10-21T17:53:27.786Z,74.47
2022-10-21T17:56:02.649Z,74.56
2022-10-21T17:58:29.837Z,74.57
2022-10-21T18:00:57.192Z,74.66
2022-10-21T18:03:28.657Z,74.71
2022-10-21T18:05:56.159Z,74.74
2022-10-21T18:08:23.561Z,74.62
2022-10-21T18:10:58.142Z,74.58
2022-10-21T18:13:29.852Z,74.67
2022-10-21T18:16:03.040Z,74.62
2022-10-21T18:18:30.181Z,74.76
2022-10-21T18:21:29.957Z,74.61
2022-10-21T18:23:56.735Z,74.58
2022-10-21T18:26:28.793Z,74.61
2022-10-21T18:28:57.453Z,74.43
2022-10-21T18:31:27.921Z,74.19
2022-10-21T18:33:55.407Z,74.20
2022-10-21T18:36:22.608Z,74.06
2022-10-21T18:38:49.574Z,74.15
2022-10-21T18:41:20.697Z,73.96
2022-10-21T18:43:50.355Z,74.05
2022-10-21T18:46:17.651Z,73.94
2022-10-21T18:48:44.363Z,73.88
2022-10-21T18:51:11.972Z,73.95
2022-10-21T18:53:39.275Z,73.91
2022-10-21T18:56:07.896Z,73.86
2022-10-21T18:58:35.328Z,73.94
2022-10-21T19:01:02.160Z,73.74
2022-10-21T19:03:28.929Z,73.70
2022-10-21T19:05:55.906Z,73.69
2022-10-21T19:08:23.500Z,73.70
2022-10-21T19:10:50.210Z,73.58
2022-10-21T19:13:16.997Z,73.83
2022-10-21T19:15:43.733Z,73.62
2022-10-21T19:18:13.458Z,73.61
2022-10-21T19:20:40.415Z,73.71
2022-10-21T19:23:07.754Z,73.58
2022-10-21T19:25:34.518Z,73.64
2022-10-21T19:28:01.241Z,73.63
2022-10-21T19:30:28.803Z,73.71
2022-10-21T19:32:58.418Z,73.69
2022-10-21T19:35:25.131Z,73.90
2022-10-21T19:37:51.848Z,73.68
2022-10-21T19:40:18.529Z,73.74
2022-10-21T19:42:45.235Z,73.69
2022-10-21T19:45:16.780Z,73.56
2022-10-21T19:47:46.862Z,73.65
2022-10-21T19:50:13.590Z,73.80
2022-10-21T19:52:40.960Z,73.77
2022-10-21T19:55:25.981Z,73.81
2022-10-21T19:57:52.793Z,73.66
2022-10-21T20:00:19.478Z,73.63
2022-10-21T20:02:46.188Z,73.23
2022-10-21T20:05:12.872Z,73.45
2022-10-21T20:07:39.732Z,73.34
2022-10-21T20:10:07.021Z,73.25
2022-10-21T20:12:33.745Z,73.45
2022-10-21T20:15:00.434Z,73.24
2022-10-21T20:17:27.160Z,73.23
2022-10-21T20:19:53.882Z,73.39
2022-10-21T20:22:20.596Z,73.23
2022-10-21T20:24:47.294Z,73.23
2022-10-21T20:27:13.971Z,73.19
2022-10-21T20:29:40.678Z,73.12
2022-10-21T20:32:07.541Z,72.94
2022-10-21T20:34:37.517Z,72.98
2022-10-21T20:37:04.433Z,73.09
2022-10-21T20:39:31.122Z,73.20
2022-10-21T20:41:57.791Z,73.06
2022-10-21T20:44:25.474Z,72.99
2022-10-21T20:46:52.162Z,73.14
2022-10-21T20:49:18.870Z,73.18
2022-10-21T20:51:45.582Z,73.33
2022-10-21T20:54:17.536Z,73.13
2022-10-21T20:56:45.000Z,73.23
2022-10-21T20:59:15.323Z,73.22
2022-10-21T21:01:44.278Z,73.37
2022-10-21T21:04:13.583Z,73.32
2022-10-21T21:06:47.918Z,73.18
2022-10-21T21:12:03.531Z,73.24
2022-10-21T21:14:31.009Z,73.20
2022-10-21T21:16:57.768Z,73.27
2022-10-21T21:19:25.603Z,73.24
2022-10-21T21:23:08.737Z,73.30
2022-10-21T21:25:35.413Z,73.29
2022-10-21T21:28:02.098Z,73.16
2022-10-21T21:30:28.797Z,73.54
2022-10-21T21:32:55.510Z,73.19
2022-10-21T21:35:22.219Z,73.34
2022-10-21T21:37:48.947Z,73.45
2022-10-21T21:40:15.618Z,73.33
2022-10-21T21:42:42.686Z,73.38
2022-10-21T21:45:09.995Z,73.48
2022-10-21T21:47:36.737Z,73.75
2022-10-21T21:50:03.906Z,73.50
2022-10-21T21:52:30.679Z,73.62
2022-10-21T21:54:57.596Z,73.49
2022-10-21T21:57:27.863Z,73.65
2022-10-21T21:59:54.911Z,73.62
2022-10-21T22:02:21.603Z,73.59
2022-10-21T22:04:48.926Z,73.56
2022-10-21T22:07:15.612Z,73.48
2022-10-21T22:09:42.306Z,73.59
2022-10-21T22:12:12.931Z,73.88
2022-10-21T22:14:41.361Z,73.83
2022-10-21T22:17:08.158Z,73.56
2022-10-21T22:19:35.214Z,73.76
2022-10-21T22:22:01.926Z,73.72
2022-10-21T22:24:31.717Z,73.65
2022-10-21T22:26:58.421Z,73.69
2022-10-21T22:29:25.134Z,73.62
2022-10-21T22:31:51.961Z,73.63
2022-10-21T22:34:18.655Z,73.14
2022-10-21T22:36:45.360Z,73.37
2022-10-21T22:39:12.090Z,73.56
2022-10-21T22:41:38.822Z,73.66
2022-10-21T22:44:05.505Z,73.52
2022-10-21T22:46:34.597Z,73.38
2022-10-21T22:49:03.577Z,73.64
2022-10-21T22:51:30.820Z,73.39
2022-10-21T22:53:57.548Z,73.43
2022-10-21T22:56:25.224Z,73.23
2022-10-21T22:58:51.952Z,73.36
2022-10-21T23:01:18.764Z,73.50
2022-10-21T23:03:45.445Z,73.32
2022-10-21T23:06:12.169Z,73.22
2022-10-21T23:08:39.086Z,73.00
2022-10-21T23:11:05.791Z,73.22
2022-10-21T23:13:32.501Z,73.16
2022-10-21T23:15:59.250Z,73.05
2022-10-21T23:18:25.941Z,73.28
2022-10-21T23:20:52.692Z,73.05
2022-10-21T23:23:19.400Z,73.10
2022-10-21T23:25:46.082Z,73.20
2022-10-21T23:28:12.879Z,73.29
2022-10-21T23:30:40.441Z,73.22
2022-10-21T23:33:07.122Z,73.46
2022-10-21T23:35:33.894Z,73.60
2022-10-21T23:38:00.682Z,73.67
2022-10-21T23:40:28.194Z,73.57
2022-10-21T23:42:55.074Z,73.71
2022-10-21T23:45:21.807Z,73.80
2022-10-21T23:47:48.534Z,73.69
2022-10-21T23:50:15.263Z,73.78
2022-10-21T23:52:42.064Z,73.87
2022-10-21T23:55:09.240Z,74.04
2022-10-21T23:57:36.023Z,73.57
